Time;durP1;ratioP1;P1;durP2;ratioP2;P2;SDS_P1;SDS_P2;PMS_P1;PMS_P2;Temp;Humidity;BMP_temperature;BMP_pressure;BME280_temperature;BME280_humidity;BME280_pressure;Samples;Min_cycle;Max_cycle;Signal;HPM_P1;HPM_P2
2023/11/18 00:02:34;;;;;;;34.13;15.57;;;4.00;99.90;;;;;;12575980;28;20055;-34
2023/11/18 00:08:53;;;;;;;32.85;15.05;;;4.20;99.90;;;;;;12558131;28;20102;-35
2023/11/18 00:15:09;;;;;;;40.22;16.27;;;4.30;99.90;;;;;;12576211;28;20438;-35
2023/11/18 00:21:18;;;;;;;37.00;16.88;;;4.40;99.90;;;;;;12566649;28;20053;-35
2023/11/18 00:27:20;;;;;;;33.17;15.55;;;4.40;99.90;;;;;;12557103;28;20693;-36
2023/11/18 00:33:27;;;;;;;33.72;15.93;;;4.40;99.90;;;;;;12568435;28;20151;-35
2023/11/18 00:39:36;;;;;;;34.20;16.15;;;4.50;99.90;;;;;;12579491;28;20061;-35
2023/11/18 00:45:46;;;;;;;37.63;16.27;;;4.60;99.90;;;;;;12561381;28;20079;-35
2023/11/18 00:51:51;;;;;;;34.85;15.38;;;4.50;99.90;;;;;;12563875;28;20093;-35
2023/11/18 00:57:54;;;;;;;31.20;15.10;;;4.50;99.90;;;;;;12580369;28;20048;-35
2023/11/18 01:04:00;;;;;;;31.08;15.80;;;4.40;99.90;;;;;;12575431;28;20051;-35
2023/11/18 01:10:06;;;;;;;30.33;14.23;;;4.30;99.90;;;;;;12572271;28;20052;-35
2023/11/18 01:16:11;;;;;;;30.83;13.88;;;4.20;99.90;;;;;;12577026;28;20049;-35
2023/11/18 01:22:18;;;;;;;26.27;14.32;;;4.10;99.90;;;;;;12575568;28;20097;-35
2023/11/18 01:28:44;;;;;;;30.70;14.00;;;4.10;99.90;;;;;;12583295;28;20040;-35
2023/11/18 01:35:00;;;;;;;28.95;12.85;;;4.10;99.90;;;;;;12559059;28;20137;-34
2023/11/18 01:41:19;;;;;;;27.85;13.95;;;4.00;99.90;;;;;;12563526;28;20150;-35
2023/11/18 01:47:33;;;;;;;39.70;16.67;;;4.10;99.90;;;;;;12579619;28;20098;-35
2023/11/18 01:53:52;;;;;;;39.38;17.50;;;4.10;99.90;;;;;;12581083;28;20063;-35
2023/11/18 02:00:11;;;;;;;44.17;18.38;;;4.10;99.90;;;;;;12563423;28;20056;-35
2023/11/18 02:06:23;;;;;;;47.95;18.55;;;4.10;99.90;;;;;;12580292;28;20484;-34
2023/11/18 02:12:42;;;;;;;43.38;18.33;;;4.20;99.90;;;;;;12578765;28;21070;-35
2023/11/18 02:18:57;;;;;;;44.90;17.70;;;4.30;99.90;;;;;;12577623;28;20060;-35
2023/11/18 02:25:11;;;;;;;46.67;18.85;;;4.30;99.90;;;;;;12581707;28;20044;-35
2023/11/18 02:31:41;;;;;;;43.67;17.05;;;4.40;99.90;;;;;;12581624;28;20045;-35
2023/11/18 02:38:02;;;;;;;50.17;19.90;;;4.50;99.90;;;;;;12580045;28;20436;-35
2023/11/18 02:44:25;;;;;;;58.35;20.52;;;4.50;99.90;;;;;;12581157;28;20045;-35
2023/11/18 02:50:42;;;;;;;54.35;18.77;;;4.50;99.90;;;;;;12575961;28;20212;-35
2023/11/18 02:57:08;;;;;;;39.55;16.88;;;4.50;99.90;;;;;;12584993;28;20143;-35
2023/11/18 03:03:45;;;;;;;38.15;16.38;;;4.40;99.90;;;;;;12581240;28;20039;-35
2023/11/18 03:10:10;;;;;;;52.70;19.88;;;4.40;99.90;;;;;;12577983;28;20078;-35
2023/11/18 03:16:36;;;;;;;48.13;18.60;;;4.40;99.90;;;;;;12576396;28;20052;-35
2023/11/18 03:23:00;;;;;;;50.78;19.50;;;4.50;99.90;;;;;;12577575;28;20055;-35
2023/11/18 03:29:16;;;;;;;42.35;18.40;;;4.40;99.90;;;;;;12576292;28;20171;-35
2023/11/18 03:35:38;;;;;;;53.22;20.75;;;4.40;99.90;;;;;;12576483;28;20056;-35
2023/11/18 03:41:53;;;;;;;51.17;20.73;;;4.50;99.90;;;;;;12578300;28;20133;-35
2023/11/18 03:48:14;;;;;;;56.65;20.13;;;4.30;99.90;;;;;;12557396;28;20480;-35
2023/11/18 03:54:24;;;;;;;55.13;21.60;;;4.50;99.90;;;;;;12575147;28;20127;-35
2023/11/18 04:00:34;;;;;;;53.80;19.75;;;4.50;99.90;;;;;;12562223;28;20091;-35
2023/11/18 04:06:43;;;;;;;56.25;20.75;;;4.40;99.90;;;;;;12557290;28;20132;-35
2023/11/18 04:12:53;;;;;;;48.50;19.55;;;4.20;99.90;;;;;;12578492;28;20074;-35
2023/11/18 04:19:02;;;;;;;46.63;19.02;;;4.40;99.90;;;;;;12584361;28;20106;-35
2023/11/18 04:25:15;;;;;;;38.70;17.40;;;4.40;99.90;;;;;;12583515;28;20131;-35
2023/11/18 04:31:26;;;;;;;46.92;18.38;;;4.50;99.90;;;;;;12583503;28;20045;-35
2023/11/18 04:37:36;;;;;;;42.47;18.98;;;4.20;99.90;;;;;;12584197;28;20508;-35
2023/11/18 04:43:47;;;;;;;47.85;19.17;;;4.00;99.90;;;;;;12581556;28;20044;-35
2023/11/18 04:50:00;;;;;;;39.80;16.17;;;3.90;99.90;;;;;;12581856;28;20647;-35
2023/11/18 04:56:10;;;;;;;42.95;18.25;;;4.10;99.90;;;;;;12580652;28;20056;-35
2023/11/18 05:02:21;;;;;;;48.58;18.38;;;3.80;99.90;;;;;;12575861;28;20049;-35
2023/11/18 05:08:30;;;;;;;44.83;17.73;;;3.70;99.90;;;;;;12559684;28;20454;-35
2023/11/18 05:14:45;;;;;;;38.22;16.63;;;3.70;99.90;;;;;;12565376;28;20106;-35
2023/11/18 05:20:57;;;;;;;36.45;16.30;;;3.80;99.90;;;;;;12581936;28;20133;-35
2023/11/18 05:27:12;;;;;;;39.38;15.50;;;3.70;99.90;;;;;;12569116;28;20060;-35
2023/11/18 05:33:37;;;;;;;40.55;16.33;;;3.70;99.90;;;;;;12585123;28;20154;-35
2023/11/18 05:40:06;;;;;;;37.83;15.20;;;3.30;99.90;;;;;;12578950;28;20055;-35
2023/11/18 05:46:25;;;;;;;39.53;15.25;;;3.20;99.90;;;;;;12563056;28;20412;-35
2023/11/18 05:52:49;;;;;;;33.75;13.15;;;3.10;99.90;;;;;;12581444;28;20108;-35
2023/11/18 05:59:08;;;;;;;29.92;13.10;;;3.20;99.90;;;;;;12566464;28;20056;-35
2023/11/18 06:05:37;;;;;;;29.70;13.15;;;3.40;99.90;;;;;;12585492;28;20098;-35
2023/11/18 06:12:17;;;;;;;31.60;14.57;;;3.60;99.90;;;;;;12583683;28;20044;-35
2023/11/18 06:18:46;;;;;;;31.85;13.75;;;3.10;99.90;;;;;;12583075;28;20044;-35
2023/11/18 06:25:12;;;;;;;40.25;15.60;;;3.40;99.90;;;;;;12583127;28;20393;-34
2023/11/18 06:31:29;;;;;;;38.08;15.45;;;3.40;99.90;;;;;;12580251;28;20127;-35
2023/11/18 06:37:37;;;;;;;36.25;14.35;;;3.40;99.90;;;;;;12578377;28;20168;-35
2023/11/18 06:50:15;;;;;;;50.08;15.48;;;3.30;99.90;;;;;;12582547;28;20048;-35
2023/11/18 06:56:47;;;;;;;46.10;14.63;;;3.30;99.90;;;;;;12583530;28;20097;-35
2023/11/18 07:03:18;;;;;;;34.53;13.75;;;3.30;99.90;;;;;;12575166;28;20311;-35
2023/11/18 07:09:44;;;;;;;28.90;13.98;;;3.40;99.90;;;;;;12583066;28;20056;-34
2023/11/18 07:16:14;;;;;;;27.48;14.50;;;3.50;99.90;;;;;;12581368;28;20449;-34
2023/11/18 07:23:08;;;;;;;41.17;13.20;;;3.50;99.90;;;;;;12577443;28;20109;-35
2023/11/18 07:29:41;;;;;;;77.32;13.10;;;3.50;99.90;;;;;;12588737;28;20047;-35
2023/11/18 07:36:28;;;;;;;21.20;11.23;;;3.40;99.90;;;;;;12581549;28;20045;-35
2023/11/18 07:43:06;;;;;;;26.92;12.45;;;3.60;99.90;;;;;;12570226;28;20048;-35
2023/11/18 07:49:57;;;;;;;30.80;12.10;;;3.60;99.90;;;;;;12564853;28;20053;-35
2023/11/18 07:56:48;;;;;;;25.13;12.18;;;3.60;99.90;;;;;;12583889;28;20064;-34
2023/11/18 08:03:23;;;;;;;21.50;11.60;;;3.70;99.90;;;;;;12583395;28;20258;-34
2023/11/18 08:10:18;;;;;;;25.85;13.25;;;3.80;99.90;;;;;;12586532;28;20102;-35
2023/11/18 08:17:00;;;;;;;53.08;11.35;;;3.80;99.90;;;;;;12568156;28;20044;-35
2023/11/18 08:23:35;;;;;;;34.75;12.40;;;3.70;99.90;;;;;;12582685;28;20067;-35
2023/11/18 08:30:00;;;;;;;22.15;12.23;;;3.80;99.90;;;;;;12580696;28;20049;-35
2023/11/18 08:36:27;;;;;;;21.30;11.40;;;4.00;99.90;;;;;;12582769;28;20557;-35
2023/11/18 08:43:07;;;;;;;19.17;10.88;;;3.90;99.90;;;;;;12566369;28;20083;-35
2023/11/18 08:49:49;;;;;;;20.02;10.43;;;4.20;99.90;;;;;;12583672;28;20144;-35
2023/11/18 08:56:40;;;;;;;20.85;10.52;;;4.30;99.90;;;;;;12573517;28;20048;-35
2023/11/18 09:10:36;;;;;;;25.08;12.32;;;4.90;99.90;;;;;;12543460;28;20527;-35
2023/11/18 09:17:27;;;;;;;17.00;8.80;;;5.10;99.90;;;;;;12589420;28;20049;-35
2023/11/18 09:23:51;;;;;;;17.35;9.27;;;4.90;99.90;;;;;;12591799;28;20053;-36
2023/11/18 09:30:17;;;;;;;11.18;5.78;;;4.90;99.90;;;;;;12588604;28;20537;-35
2023/11/18 09:37:09;;;;;;;11.35;5.75;;;5.10;99.90;;;;;;12590239;28;20048;-35
2023/11/18 09:43:47;;;;;;;10.57;5.22;;;5.30;99.90;;;;;;12586705;28;20071;-35
2023/11/18 09:50:20;;;;;;;7.68;4.97;;;5.30;99.90;;;;;;12586636;28;20047;-35
2023/11/18 09:56:56;;;;;;;6.97;4.13;;;5.30;99.90;;;;;;12588913;28;20091;-35
2023/11/18 10:03:22;;;;;;;8.13;4.57;;;5.30;99.90;;;;;;12587857;28;20056;-35
2023/11/18 10:09:48;;;;;;;9.70;5.10;;;5.40;99.90;;;;;;12587932;28;20454;-35
2023/11/18 10:16:05;;;;;;;7.80;5.20;;;5.50;99.90;;;;;;12565325;28;20044;-35
2023/11/18 10:22:40;;;;;;;8.50;4.13;;;5.30;99.90;;;;;;12567214;28;20492;-35
2023/11/18 10:29:08;;;;;;;9.13;4.90;;;5.20;99.90;;;;;;12588454;28;20851;-35
2023/11/18 10:35:42;;;;;;;10.25;5.57;;;5.20;99.90;;;;;;12584602;28;20052;-35
2023/11/18 10:42:06;;;;;;;8.60;4.55;;;5.40;99.90;;;;;;12584458;28;20059;-35
2023/11/18 10:48:22;;;;;;;8.35;5.20;;;5.50;99.90;;;;;;12563019;28;20048;-35
2023/11/18 10:54:55;;;;;;;8.95;5.15;;;5.60;99.90;;;;;;12579616;28;20055;-35
2023/11/18 11:01:12;;;;;;;7.63;4.80;;;5.60;99.90;;;;;;12583457;28;20409;-35
2023/11/18 11:07:28;;;;;;;8.25;5.28;;;5.70;99.90;;;;;;12581755;28;20381;-35
2023/11/18 11:13:50;;;;;;;8.97;5.40;;;5.80;99.90;;;;;;12579545;28;20052;-35
2023/11/18 11:20:23;;;;;;;7.13;4.78;;;5.90;99.90;;;;;;12579826;28;20071;-35
2023/11/18 11:26:51;;;;;;;9.63;5.45;;;6.10;99.90;;;;;;12577134;28;20046;-35
2023/11/18 11:33:12;;;;;;;7.72;5.07;;;6.20;99.90;;;;;;12586814;28;20178;-35
2023/11/18 11:39:25;;;;;;;7.63;4.95;;;6.20;99.90;;;;;;12579214;28;20477;-35
2023/11/18 11:45:47;;;;;;;6.80;4.65;;;6.20;99.90;;;;;;12562331;28;20097;-35
2023/11/18 11:52:16;;;;;;;8.38;5.13;;;6.10;99.90;;;;;;12583264;28;20039;-35
2023/11/18 11:58:37;;;;;;;7.30;4.95;;;6.10;99.90;;;;;;12581665;28;20049;-35
2023/11/18 12:04:54;;;;;;;7.97;5.00;;;6.20;99.90;;;;;;12574769;28;20079;-35
2023/11/18 12:11:12;;;;;;;11.48;5.18;;;6.10;99.90;;;;;;12565596;28;20063;-35
2023/11/18 12:17:22;;;;;;;9.00;5.32;;;6.10;99.90;;;;;;12566216;28;20051;-35
2023/11/18 12:23:31;;;;;;;10.30;5.40;;;6.00;99.90;;;;;;12568961;28;20060;-35
2023/11/18 12:29:50;;;;;;;10.25;5.72;;;5.90;99.90;;;;;;12556300;28;20052;-34
2023/11/18 12:36:09;;;;;;;9.40;6.35;;;5.70;99.90;;;;;;12580370;28;20139;-35
2023/11/18 12:42:58;;;;;;;10.80;6.35;;;5.60;99.90;;;;;;12557711;28;20109;-35
2023/11/18 12:49:30;;;;;;;11.82;6.60;;;5.50;99.90;;;;;;12578048;28;21377;-35
2023/11/18 12:55:52;;;;;;;10.40;6.05;;;5.30;99.90;;;;;;12579975;28;20048;-34
2023/11/18 13:02:23;;;;;;;10.60;6.35;;;5.30;99.90;;;;;;12578040;28;20404;-35
2023/11/18 13:08:36;;;;;;;11.55;6.43;;;5.30;99.90;;;;;;12581168;28;20063;-35
2023/11/18 13:14:47;;;;;;;9.95;6.03;;;5.20;99.90;;;;;;12571770;28;20052;-35
2023/11/18 13:21:00;;;;;;;10.23;5.80;;;5.20;99.90;;;;;;12574000;28;20056;-35
2023/11/18 13:27:16;;;;;;;7.97;5.13;;;5.20;99.90;;;;;;12572496;28;20459;-35
2023/11/18 13:33:28;;;;;;;9.73;5.68;;;5.20;99.90;;;;;;12571680;28;20057;-34
2023/11/18 14:00:35;;;;;;;8.63;4.82;;;5.10;99.90;;;;;;15318356;22;1264556;-83
2023/11/18 14:06:39;;;;;;;10.38;5.28;;;5.00;99.90;;;;;;15256659;23;20025;-83
2023/11/18 14:13:12;;;;;;;7.60;4.53;;;5.00;99.90;;;;;;15250289;23;20025;-85
2023/11/18 14:19:15;;;;;;;8.02;4.35;;;5.00;99.90;;;;;;15268595;22;20025;-81
2023/11/18 14:25:17;;;;;;;6.82;4.10;;;5.00;99.90;;;;;;15269230;23;20391;-84
2023/11/18 14:31:22;;;;;;;10.68;4.90;;;5.00;99.90;;;;;;15264006;23;20032;-84
2023/11/18 14:37:25;;;;;;;;;;;5.00;99.90;;;;;;15264110;23;20401;-83
2023/11/18 14:43:28;;;;;;;8.00;4.38;;;4.90;99.90;;;;;;15260981;23;19931;-84
2023/11/18 14:49:29;;;;;;;7.20;4.60;;;4.90;99.90;;;;;;15252116;23;20100;-85
2023/11/18 14:55:33;;;;;;;8.20;4.88;;;4.90;99.90;;;;;;15241472;23;20018;-83
2023/11/18 15:01:43;;;;;;;16.48;8.30;;;4.90;99.90;;;;;;15222319;23;20340;-83
2023/11/18 15:07:54;;;;;;;9.65;5.65;;;4.90;99.90;;;;;;15216855;23;20477;-83
2023/11/18 15:13:57;;;;;;;6.53;4.90;;;4.90;99.90;;;;;;15228653;23;20025;-82
2023/11/18 15:19:58;;;;;;;8.90;5.68;;;4.90;99.90;;;;;;15219635;23;21157;-81
2023/11/18 15:26:00;;;;;;;9.50;5.65;;;4.90;99.90;;;;;;15247291;23;20459;-81
2023/11/18 15:32:03;;;;;;;7.85;5.45;;;4.90;99.90;;;;;;15243605;23;20017;-83
2023/11/18 15:38:09;;;;;;;7.85;4.93;;;5.00;99.90;;;;;;15247031;23;20027;-81
2023/11/18 15:44:13;;;;;;;10.23;5.60;;;5.00;99.90;;;;;;15248985;23;20030;-81
2023/11/18 15:50:16;;;;;;;8.43;5.05;;;5.00;99.90;;;;;;15250498;23;20032;-80
2023/11/18 15:56:19;;;;;;;10.57;5.70;;;5.00;99.90;;;;;;15253607;23;20022;-81
2023/11/18 16:02:21;;;;;;;9.57;5.78;;;4.90;99.90;;;;;;15253464;23;20040;-82
2023/11/18 16:08:24;;;;;;;8.98;5.55;;;5.00;99.90;;;;;;15253855;22;20076;-83
2023/11/18 16:14:26;;;;;;;10.43;5.47;;;4.90;99.90;;;;;;15256517;23;20025;-81
2023/11/18 16:20:33;;;;;;;8.65;5.57;;;4.90;99.90;;;;;;15255758;23;20147;-80
2023/11/18 16:26:36;;;;;;;9.57;5.55;;;5.00;99.90;;;;;;15255536;23;20067;-83
2023/11/18 16:32:38;;;;;;;7.35;4.93;;;4.90;99.90;;;;;;15252214;23;20057;-82
2023/11/18 16:38:41;;;;;;;8.98;5.00;;;4.90;99.90;;;;;;15252454;23;20032;-82
2023/11/18 16:44:43;;;;;;;7.80;4.32;;;4.90;99.90;;;;;;15254187;23;20048;-84
2023/11/18 16:50:45;;;;;;;6.72;4.40;;;5.00;99.90;;;;;;15257205;23;20029;-84
2023/11/18 16:56:47;;;;;;;7.13;4.18;;;4.90;99.90;;;;;;15254622;23;20025;-84
2023/11/18 17:02:54;;;;;;;5.75;3.88;;;5.00;99.90;;;;;;15254424;23;20036;-84
2023/11/18 17:09:00;;;;;;;8.38;4.50;;;5.00;99.90;;;;;;15253881;23;20018;-85
2023/11/18 17:15:02;;;;;;;8.43;4.97;;;5.00;99.90;;;;;;15250361;23;20017;-86
2023/11/18 17:21:05;;;;;;;11.82;5.53;;;5.10;99.90;;;;;;15254587;23;20122;-84
2023/11/18 17:27:08;;;;;;;8.75;5.38;;;5.10;99.90;;;;;;15254621;23;20029;-83
2023/11/18 17:33:11;;;;;;;8.88;5.13;;;5.10;99.90;;;;;;15255385;23;20187;-85
2023/11/18 17:39:14;;;;;;;8.82;5.50;;;5.20;99.90;;;;;;15255122;23;20083;-84
2023/11/18 17:45:17;;;;;;;9.13;5.13;;;5.20;99.90;;;;;;15252878;23;20100;-85
2023/11/18 17:51:22;;;;;;;7.13;4.55;;;5.20;99.90;;;;;;15251226;23;20044;-83
2023/11/18 17:57:25;;;;;;;8.73;4.75;;;5.30;99.90;;;;;;15257685;23;20022;-83
2023/11/18 18:03:27;;;;;;;7.05;4.90;;;5.30;99.90;;;;;;15257636;23;20118;-82
2023/11/18 18:09:29;;;;;;;5.60;3.88;;;5.40;99.90;;;;;;15258385;23;20783;-82
2023/11/18 18:15:31;;;;;;;11.02;5.00;;;5.40;99.90;;;;;;15249643;23;20033;-83
2023/11/18 18:21:33;;;;;;;6.32;4.40;;;5.40;99.90;;;;;;15249687;23;20022;-82
2023/11/18 18:27:35;;;;;;;7.03;4.97;;;5.50;99.90;;;;;;15256409;23;20060;-84
2023/11/18 18:33:37;;;;;;;8.00;4.80;;;5.50;99.90;;;;;;15255201;23;20096;-84
2023/11/18 18:39:40;;;;;;;7.70;4.82;;;5.50;99.90;;;;;;15252520;23;20033;-84
2023/11/18 18:45:42;;;;;;;7.20;4.40;;;5.50;99.90;;;;;;15252697;23;20300;-82
2023/11/18 18:51:44;;;;;;;6.63;4.70;;;5.60;99.90;;;;;;15252498;23;20082;-84
2023/11/18 18:57:47;;;;;;;5.20;3.90;;;5.60;99.90;;;;;;15249227;23;20017;-84
2023/11/18 19:03:51;;;;;;;4.93;3.50;;;5.70;99.90;;;;;;15246412;23;20075;-82
2023/11/18 19:09:53;;;;;;;5.05;3.60;;;5.70;99.90;;;;;;15249938;23;20017;-82
2023/11/18 19:15:56;;;;;;;4.70;3.63;;;5.80;99.90;;;;;;15251740;23;20017;-83
2023/11/18 19:21:58;;;;;;;4.75;3.40;;;5.80;99.90;;;;;;15253798;23;20206;-84
2023/11/18 19:28:03;;;;;;;3.90;3.00;;;5.90;99.90;;;;;;15245936;23;20044;-85
2023/11/18 19:34:05;;;;;;;3.78;2.70;;;5.80;99.90;;;;;;15250148;23;20028;-85
2023/11/18 19:40:10;;;;;;;3.08;2.45;;;5.90;99.90;;;;;;15253594;23;20351;-85
2023/11/18 19:46:13;;;;;;;3.38;2.92;;;5.90;99.90;;;;;;15257286;23;20028;-82
2023/11/18 19:52:15;;;;;;;2.92;2.53;;;5.90;99.90;;;;;;15252624;23;20467;-81
2023/11/18 19:58:21;;;;;;;3.55;2.55;;;5.90;99.90;;;;;;15250919;22;20026;-83
2023/11/18 20:04:29;;;;;;;2.47;2.27;;;5.90;99.90;;;;;;15248988;23;20038;-83
2023/11/18 20:10:32;;;;;;;2.60;2.22;;;6.00;99.90;;;;;;15247446;23;20107;-86
2023/11/18 20:16:35;;;;;;;2.42;2.10;;;6.00;99.90;;;;;;15246675;23;20773;-81
2023/11/18 20:22:38;;;;;;;2.40;2.20;;;6.10;99.90;;;;;;15247637;23;20018;-83
2023/11/18 20:28:40;;;;;;;2.30;2.10;;;6.10;99.90;;;;;;15247149;23;20025;-83
2023/11/18 20:34:42;;;;;;;2.17;1.98;;;6.10;99.90;;;;;;15252091;23;20096;-79
2023/11/18 20:40:44;;;;;;;2.40;2.20;;;6.10;99.90;;;;;;15258833;23;20110;-84
2023/11/18 20:46:46;;;;;;;2.55;2.30;;;6.20;99.90;;;;;;15269084;22;20025;-85
2023/11/18 20:52:49;;;;;;;3.58;2.20;;;6.20;99.90;;;;;;15270472;23;20022;-84
2023/11/18 20:58:51;;;;;;;2.70;2.30;;;6.30;99.90;;;;;;15257706;23;20021;-87
2023/11/18 21:04:53;;;;;;;2.53;2.33;;;6.30;99.90;;;;;;15249725;23;20022;-86
2023/11/18 21:10:55;;;;;;;2.50;2.28;;;6.30;99.90;;;;;;15252910;23;20022;-84
2023/11/18 21:16:59;;;;;;;2.63;2.40;;;6.40;99.90;;;;;;15249488;23;20026;-84
2023/11/18 21:23:09;;;;;;;2.75;2.45;;;6.40;99.90;;;;;;15251422;23;20761;-83
2023/11/18 21:29:12;;;;;;;2.90;2.65;;;6.40;99.90;;;;;;15253127;23;20025;-83
2023/11/18 21:35:20;;;;;;;2.42;2.22;;;6.50;99.90;;;;;;15247918;23;20021;-83
2023/11/18 21:41:22;;;;;;;2.50;2.30;;;6.60;99.90;;;;;;15250832;23;20029;-85
2023/11/18 21:47:25;;;;;;;2.50;2.30;;;6.80;99.90;;;;;;15252329;23;20381;-84
2023/11/18 21:53:27;;;;;;;2.50;2.30;;;6.90;99.90;;;;;;15253639;23;20459;-82
2023/11/18 21:59:29;;;;;;;3.00;2.70;;;7.00;99.90;;;;;;15249250;23;20029;-81
2023/11/18 22:05:31;;;;;;;2.63;2.42;;;7.10;99.90;;;;;;15257096;23;20036;-83
2023/11/18 22:11:33;;;;;;;5.65;2.40;;;7.20;99.90;;;;;;15257347;23;20021;-83
2023/11/18 22:17:38;;;;;;;;;;;7.30;99.90;;;;;;15261998;23;20028;-83
2023/11/18 22:23:42;;;;;;;2.58;2.38;;;7.40;99.90;;;;;;15258714;23;19939;-83
2023/11/18 22:29:45;;;;;;;3.97;2.60;;;7.30;99.90;;;;;;15260731;23;20029;-81
2023/11/18 22:35:47;;;;;;;4.28;2.20;;;7.30;99.90;;;;;;15261071;23;20448;-83
2023/11/18 22:41:50;;;;;;;5.43;2.20;;;7.40;99.90;;;;;;15234640;23;20028;-82
2023/11/18 22:47:56;;;;;;;3.03;2.75;;;7.40;99.90;;;;;;15258731;23;20029;-83
2023/11/18 22:53:58;;;;;;;2.75;2.55;;;7.40;99.90;;;;;;15256989;23;20017;-80
2023/11/18 23:00:13;;;;;;;3.25;2.95;;;7.50;99.90;;;;;;15256069;23;20104;-82
2023/11/18 23:06:23;;;;;;;3.60;3.30;;;7.50;99.90;;;;;;15256226;23;20028;-81
2023/11/18 23:12:26;;;;;;;3.75;3.45;;;7.60;99.90;;;;;;15257195;23;20025;-82
2023/11/18 23:18:29;;;;;;;3.38;3.08;;;7.60;99.90;;;;;;15252213;23;20146;-82
2023/11/18 23:24:32;;;;;;;3.92;3.63;;;7.70;99.90;;;;;;15250961;23;20029;-83
2023/11/18 23:30:34;;;;;;;4.10;3.78;;;7.70;99.90;;;;;;15248840;23;20531;-84
2023/11/18 23:36:38;;;;;;;4.10;3.70;;;7.80;99.90;;;;;;15251449;23;20021;-84
2023/11/18 23:42:44;;;;;;;4.30;4.00;;;7.80;99.90;;;;;;15249908;23;20025;-83
2023/11/18 23:48:46;;;;;;;3.78;3.47;;;7.80;99.90;;;;;;15253141;23;20261;-83
2023/11/18 23:54:50;;;;;;;4.35;4.05;;;7.90;99.90;;;;;;15247808;23;20026;-83
